sensor_id;sensor_type;location;lat;lon;timestamp;temperature;humidity
16974;DHT22;8603;46.944;7.412;2024-03-02T00:03:48;2.10;99.90
16974;DHT22;8603;46.944;7.412;2024-03-02T00:06:24;2.10;99.90
16974;DHT22;8603;46.944;7.412;2024-03-02T00:15:42;1.90;99.90
16974;DHT22;8603;46.944;7.412;2024-03-02T00:18:38;1.80;99.90
16974;DHT22;8603;46.944;7.412;2024-03-02T00:21:14;1.80;99.90
16974;DHT22;8603;46.944;7.412;2024-03-02T00:23:42;1.70;99.90
16974;DHT22;8603;46.944;7.412;2024-03-02T00:26:17;1.60;99.90
16974;DHT22;8603;46.944;7.412;2024-03-02T00:28:59;1.60;99.90
16974;DHT22;8603;46.944;7.412;2024-03-02T00:31:29;1.70;99.90
16974;DHT22;8603;46.944;7.412;2024-03-02T00:33:55;1.60;99.90
16974;DHT22;8603;46.944;7.412;2024-03-02T00:36:32;1.70;99.90
16974;DHT22;8603;46.944;7.412;2024-03-02T00:39:05;1.70;99.90
16974;DHT22;8603;46.944;7.412;2024-03-02T00:41:36;1.70;99.90
16974;DHT22;8603;46.944;7.412;2024-03-02T00:44:03;1.60;99.90
16974;DHT22;8603;46.944;7.412;2024-03-02T00:46:41;1.60;99.90
16974;DHT22;8603;46.944;7.412;2024-03-02T00:49:24;1.60;99.90
16974;DHT22;8603;46.944;7.412;2024-03-02T00:51:59;1.50;99.90
16974;DHT22;8603;46.944;7.412;2024-03-02T00:54:28;1.50;99.90
16974;DHT22;8603;46.944;7.412;2024-03-02T00:56:55;1.50;99.90
16974;DHT22;8603;46.944;7.412;2024-03-02T00:59:24;1.40;99.90
16974;DHT22;8603;46.944;7.412;2024-03-02T01:01:57;1.40;99.90
16974;DHT22;8603;46.944;7.412;2024-03-02T01:04:25;1.50;99.90
16974;DHT22;8603;46.944;7.412;2024-03-02T01:06:53;1.40;99.90
16974;DHT22;8603;46.944;7.412;2024-03-02T01:09:29;1.40;99.90
16974;DHT22;8603;46.944;7.412;2024-03-02T01:12:26;1.30;99.90
16974;DHT22;8603;46.944;7.412;2024-03-02T01:15:18;1.30;99.90
16974;DHT22;8603;46.944;7.412;2024-03-02T01:17:47;1.30;99.90
16974;DHT22;8603;46.944;7.412;2024-03-02T01:20:12;1.20;99.90
16974;DHT22;8603;46.944;7.412;2024-03-02T01:22:41;1.20;99.90
16974;DHT22;8603;46.944;7.412;2024-03-02T01:25:12;1.20;99.90
16974;DHT22;8603;46.944;7.412;2024-03-02T01:28:03;1.20;99.90
16974;DHT22;8603;46.944;7.412;2024-03-02T01:30:31;1.20;99.90
16974;DHT22;8603;46.944;7.412;2024-03-02T01:33:16;1.20;99.90
16974;DHT22;8603;46.944;7.412;2024-03-02T01:38:55;1.20;99.90
16974;DHT22;8603;46.944;7.412;2024-03-02T01:41:57;1.10;99.90
16974;DHT22;8603;46.944;7.412;2024-03-02T01:44:28;1.10;99.90
16974;DHT22;8603;46.944;7.412;2024-03-02T01:47:31;1.20;99.90
16974;DHT22;8603;46.944;7.412;2024-03-02T01:50:13;1.20;99.90
16974;DHT22;8603;46.944;7.412;2024-03-02T01:52:41;1.20;99.90
16974;DHT22;8603;46.944;7.412;2024-03-02T01:55:32;1.10;99.90
16974;DHT22;8603;46.944;7.412;2024-03-02T01:58:07;1.00;99.90
16974;DHT22;8603;46.944;7.412;2024-03-02T02:00:35;0.90;99.90
16974;DHT22;8603;46.944;7.412;2024-03-02T02:03:09;0.90;99.90
16974;DHT22;8603;46.944;7.412;2024-03-02T02:05:35;1.00;99.90
16974;DHT22;8603;46.944;7.412;2024-03-02T02:08:01;1.00;99.90
16974;DHT22;8603;46.944;7.412;2024-03-02T02:10:27;0.90;99.90
16974;DHT22;8603;46.944;7.412;2024-03-02T02:12:55;1.00;99.90
16974;DHT22;8603;46.944;7.412;2024-03-02T02:15:34;1.10;99.90
16974;DHT22;8603;46.944;7.412;2024-03-02T02:18:12;1.30;99.90
16974;DHT22;8603;46.944;7.412;2024-03-02T02:20:40;1.50;99.90
16974;DHT22;8603;46.944;7.412;2024-03-02T02:23:06;1.60;99.90
16974;DHT22;8603;46.944;7.412;2024-03-02T02:25:35;1.70;99.90
16974;DHT22;8603;46.944;7.412;2024-03-02T02:28:01;1.80;99.90
16974;DHT22;8603;46.944;7.412;2024-03-02T02:30:31;1.70;99.90
16974;DHT22;8603;46.944;7.412;2024-03-02T02:33:03;1.60;99.90
16974;DHT22;8603;46.944;7.412;2024-03-02T02:35:37;1.50;99.90
16974;DHT22;8603;46.944;7.412;2024-03-02T02:38:08;1.40;99.90
16974;DHT22;8603;46.944;7.412;2024-03-02T02:40:34;1.30;99.90
16974;DHT22;8603;46.944;7.412;2024-03-02T02:43:00;1.20;99.90
16974;DHT22;8603;46.944;7.412;2024-03-02T02:45:28;1.10;99.90
16974;DHT22;8603;46.944;7.412;2024-03-02T02:47:54;1.00;99.90
16974;DHT22;8603;46.944;7.412;2024-03-02T02:50:24;0.90;99.90
16974;DHT22;8603;46.944;7.412;2024-03-02T02:52:53;1.00;99.90
16974;DHT22;8603;46.944;7.412;2024-03-02T02:55:19;0.80;99.90
16974;DHT22;8603;46.944;7.412;2024-03-02T02:57:50;0.70;99.90
16974;DHT22;8603;46.944;7.412;2024-03-02T03:00:16;0.70;99.90
16974;DHT22;8603;46.944;7.412;2024-03-02T03:02:45;0.60;99.90
16974;DHT22;8603;46.944;7.412;2024-03-02T03:05:13;0.60;99.90
16974;DHT22;8603;46.944;7.412;2024-03-02T03:07:45;0.50;99.90
16974;DHT22;8603;46.944;7.412;2024-03-02T03:10:11;0.50;99.90
16974;DHT22;8603;46.944;7.412;2024-03-02T03:12:37;0.50;99.90
16974;DHT22;8603;46.944;7.412;2024-03-02T03:15:03;0.50;99.90
16974;DHT22;8603;46.944;7.412;2024-03-02T03:17:30;0.50;99.90
16974;DHT22;8603;46.944;7.412;2024-03-02T03:19:55;0.40;99.90
16974;DHT22;8603;46.944;7.412;2024-03-02T03:22:21;0.40;99.90
16974;DHT22;8603;46.944;7.412;2024-03-02T03:24:47;0.40;99.90
16974;DHT22;8603;46.944;7.412;2024-03-02T03:27:15;0.40;99.90
16974;DHT22;8603;46.944;7.412;2024-03-02T03:29:40;0.40;99.90
16974;DHT22;8603;46.944;7.412;2024-03-02T03:32:29;0.30;99.90
16974;DHT22;8603;46.944;7.412;2024-03-02T03:34:57;0.30;99.90
16974;DHT22;8603;46.944;7.412;2024-03-02T03:37:26;0.30;99.90
16974;DHT22;8603;46.944;7.412;2024-03-02T03:39:58;0.30;99.90
16974;DHT22;8603;46.944;7.412;2024-03-02T03:42:24;0.30;99.90
16974;DHT22;8603;46.944;7.412;2024-03-02T03:44:50;0.40;99.90
16974;DHT22;8603;46.944;7.412;2024-03-02T03:47:15;0.40;99.90
16974;DHT22;8603;46.944;7.412;2024-03-02T03:49:41;0.40;99.90
16974;DHT22;8603;46.944;7.412;2024-03-02T03:52:07;0.40;99.90
16974;DHT22;8603;46.944;7.412;2024-03-02T03:54:32;0.50;99.90
16974;DHT22;8603;46.944;7.412;2024-03-02T03:56:58;0.60;99.90
16974;DHT22;8603;46.944;7.412;2024-03-02T03:59:24;0.70;99.90
16974;DHT22;8603;46.944;7.412;2024-03-02T04:01:49;0.80;99.90
16974;DHT22;8603;46.944;7.412;2024-03-02T04:04:15;0.80;99.90
16974;DHT22;8603;46.944;7.412;2024-03-02T04:06:41;0.90;99.90
16974;DHT22;8603;46.944;7.412;2024-03-02T04:09:06;1.00;99.90
16974;DHT22;8603;46.944;7.412;2024-03-02T04:11:32;1.00;99.90
16974;DHT22;8603;46.944;7.412;2024-03-02T04:14:01;1.10;99.90
16974;DHT22;8603;46.944;7.412;2024-03-02T04:16:27;1.20;99.90
16974;DHT22;8603;46.944;7.412;2024-03-02T04:18:56;1.20;99.90
16974;DHT22;8603;46.944;7.412;2024-03-02T04:21:23;1.30;99.90
16974;DHT22;8603;46.944;7.412;2024-03-02T04:23:49;1.40;99.90
16974;DHT22;8603;46.944;7.412;2024-03-02T04:26:17;1.50;99.90
16974;DHT22;8603;46.944;7.412;2024-03-02T04:28:47;1.60;99.90
16974;DHT22;8603;46.944;7.412;2024-03-02T04:31:14;1.70;99.90
16974;DHT22;8603;46.944;7.412;2024-03-02T04:33:40;1.70;99.90
16974;DHT22;8603;46.944;7.412;2024-03-02T04:36:24;1.80;99.90
16974;DHT22;8603;46.944;7.412;2024-03-02T04:38:52;1.90;99.90
16974;DHT22;8603;46.944;7.412;2024-03-02T04:41:26;1.90;99.90
16974;DHT22;8603;46.944;7.412;2024-03-02T04:43:53;1.90;99.90
16974;DHT22;8603;46.944;7.412;2024-03-02T04:46:18;1.90;99.90
16974;DHT22;8603;46.944;7.412;2024-03-02T04:48:44;2.00;99.90
16974;DHT22;8603;46.944;7.412;2024-03-02T04:51:10;2.00;99.90
16974;DHT22;8603;46.944;7.412;2024-03-02T04:53:39;2.00;99.90
16974;DHT22;8603;46.944;7.412;2024-03-02T04:56:05;2.00;99.90
16974;DHT22;8603;46.944;7.412;2024-03-02T04:58:49;2.00;99.90
16974;DHT22;8603;46.944;7.412;2024-03-02T05:01:17;2.00;99.90
16974;DHT22;8603;46.944;7.412;2024-03-02T05:03:44;2.10;99.90
16974;DHT22;8603;46.944;7.412;2024-03-02T05:06:10;2.10;99.90
16974;DHT22;8603;46.944;7.412;2024-03-02T05:08:37;2.00;99.90
16974;DHT22;8603;46.944;7.412;2024-03-02T05:11:03;2.10;99.90
16974;DHT22;8603;46.944;7.412;2024-03-02T05:13:47;1.90;99.90
16974;DHT22;8603;46.944;7.412;2024-03-02T05:16:12;1.90;99.90
16974;DHT22;8603;46.944;7.412;2024-03-02T05:18:38;1.90;99.90
16974;DHT22;8603;46.944;7.412;2024-03-02T05:21:04;2.00;99.90
16974;DHT22;8603;46.944;7.412;2024-03-02T05:23:29;2.00;99.90
16974;DHT22;8603;46.944;7.412;2024-03-02T05:25:56;1.80;99.90
16974;DHT22;8603;46.944;7.412;2024-03-02T05:28:22;2.00;99.90
16974;DHT22;8603;46.944;7.412;2024-03-02T05:30:47;2.10;99.90
16974;DHT22;8603;46.944;7.412;2024-03-02T05:33:13;2.10;99.90
16974;DHT22;8603;46.944;7.412;2024-03-02T05:35:38;2.10;99.90
16974;DHT22;8603;46.944;7.412;2024-03-02T05:38:05;2.20;99.90
16974;DHT22;8603;46.944;7.412;2024-03-02T05:40:31;2.20;99.90
16974;DHT22;8603;46.944;7.412;2024-03-02T05:42:57;2.20;99.90
16974;DHT22;8603;46.944;7.412;2024-03-02T05:45:26;2.20;99.90
16974;DHT22;8603;46.944;7.412;2024-03-02T05:47:51;2.20;99.90
16974;DHT22;8603;46.944;7.412;2024-03-02T05:50:17;2.20;99.90
16974;DHT22;8603;46.944;7.412;2024-03-02T05:52:45;2.20;99.90
16974;DHT22;8603;46.944;7.412;2024-03-02T05:55:11;2.20;99.90
16974;DHT22;8603;46.944;7.412;2024-03-02T05:57:41;2.20;99.90
16974;DHT22;8603;46.944;7.412;2024-03-02T06:00:10;2.30;99.90
16974;DHT22;8603;46.944;7.412;2024-03-02T06:02:40;2.30;99.90
16974;DHT22;8603;46.944;7.412;2024-03-02T06:05:27;2.30;99.90
16974;DHT22;8603;46.944;7.412;2024-03-02T06:07:53;2.20;99.90
16974;DHT22;8603;46.944;7.412;2024-03-02T06:10:19;2.20;99.90
16974;DHT22;8603;46.944;7.412;2024-03-02T06:12:44;2.20;99.90
16974;DHT22;8603;46.944;7.412;2024-03-02T06:15:10;2.20;99.90
16974;DHT22;8603;46.944;7.412;2024-03-02T06:18:05;2.30;99.90
16974;DHT22;8603;46.944;7.412;2024-03-02T06:23:58;2.30;99.90
16974;DHT22;8603;46.944;7.412;2024-03-02T06:26:50;2.30;99.90
16974;DHT22;8603;46.944;7.412;2024-03-02T08:41:39;26.50;86.10
16974;DHT22;8603;46.944;7.412;2024-03-02T08:44:27;26.90;85.80
16974;DHT22;8603;46.944;7.412;2024-03-02T09:27:41;23.70;84.70
16974;DHT22;8603;46.944;7.412;2024-03-02T09:30:59;21.60;87.20
16974;DHT22;8603;46.944;7.412;2024-03-02T09:34:39;19.80;89.00
16974;DHT22;8603;46.944;7.412;2024-03-02T09:44:19;13.90;97.20
16974;DHT22;8603;46.944;7.412;2024-03-02T09:46:49;12.60;99.90
16974;DHT22;8603;46.944;7.412;2024-03-02T09:49:30;12.50;99.90
16974;DHT22;8603;46.944;7.412;2024-03-02T09:51:57;12.40;99.90
16974;DHT22;8603;46.944;7.412;2024-03-02T09:54:28;12.40;99.90
16974;DHT22;8603;46.944;7.412;2024-03-02T09:57:03;12.60;99.90
16974;DHT22;8603;46.944;7.412;2024-03-02T09:59:58;12.60;99.90
16974;DHT22;8603;46.944;7.412;2024-03-02T10:02:59;12.40;99.90
16974;DHT22;8603;46.944;7.412;2024-03-02T10:09:00;12.30;99.90
16974;DHT22;8603;46.944;7.412;2024-03-02T10:24:57;12.50;99.90
16974;DHT22;8603;46.944;7.412;2024-03-02T10:28:14;12.60;99.90
16974;DHT22;8603;46.944;7.412;2024-03-02T10:31:38;12.90;99.90
16974;DHT22;8603;46.944;7.412;2024-03-02T11:57:10;13.90;99.90
16974;DHT22;8603;46.944;7.412;2024-03-02T12:26:51;13.40;99.90
16974;DHT22;8603;46.944;7.412;2024-03-02T12:29:40;13.50;99.90
16974;DHT22;8603;46.944;7.412;2024-03-02T12:32:22;13.60;99.90
16974;DHT22;8603;46.944;7.412;2024-03-02T12:55:17;13.50;99.90
16974;DHT22;8603;46.944;7.412;2024-03-02T12:57:44;13.30;99.90
16974;DHT22;8603;46.944;7.412;2024-03-02T19:22:50;7.60;99.90
16974;DHT22;8603;46.944;7.412;2024-03-02T19:25:26;7.50;99.90
16974;DHT22;8603;46.944;7.412;2024-03-02T19:28:02;7.50;99.90
